Overview Statistics Trail Chart Weather Telemetry Raw packets
 

This is the latest recevied weather packets stored in our database for station/object YO8PIC-13. If no packets are shown the sender has not sent any weather packets the latest 10 day(s).

<< 29 30 31 32 33 34 35 >>
Time Temp. Humidity Pressure Rain* Wind** Luminosity Snow
1788111298 25° C 45% 1019.2 hPa - - - -
1788110698 25° C 44% 1019.1 hPa - - - -
1788110098 25.56° C 45% 1019 hPa - - - -
1788109498 26.11° C 42% 1018.9 hPa - - - -
1788108898 26.67° C 41% 1018.8 hPa - - - -
1788108298 27.22° C 40% 1018.7 hPa - - - -
1788107698 27.78° C 38% 1018.7 hPa - - - -
1788107098 28.33° C 37% 1018.6 hPa - - - -
1788106498 28.33° C 36% 1018.5 hPa - - - -
1788105898 29.44° C 34% 1018.5 hPa - - - -
1788105298 30° C 32% 1018.5 hPa - - - -
1788104699 30.56° C 31% 1018.6 hPa - - - -
1788104098 31.67° C 29% 1018.5 hPa - - - -
1788103498 31.67° C 29% 1018.6 hPa - - - -
1788102898 32.22° C 27% 1018.5 hPa - - - -
1788102299 33.33° C 25% 1018.5 hPa - - - -
1788101698 33.33° C 24% 1018.5 hPa - - - -
1788101098 41.67° C 15% 1018.3 hPa - - - -
1788100498 43.33° C 14% 1018.2 hPa - - - -
1788099898 39.44° C 17% 1018.3 hPa - - - -
1788099298 42.78° C 14% 1018.2 hPa - - - -
1788098698 43.33° C 13% 1018.3 hPa - - - -
1788098106 42.78° C 14% 1018.3 hPa - - - -
1788097498 38.33° C 17% 1018.4 hPa - - - -
1788096898 40.56° C 16% 1018.5 hPa - - - -

* Rain since midnight (hover to see other rain measurements)
** Current wind speed in m/s (hover to see current wind gust speed)